Time;durP1;ratioP1;P1;durP2;ratioP2;P2;SDS_P1;SDS_P2;PMS_P1;PMS_P2;Temp;Humidity;BMP_temperature;BMP_pressure;BME280_temperature;BME280_humidity;BME280_pressure;Samples;Min_cycle;Max_cycle;Signal;HPM_P1;HPM_P2
2023/03/31 00:00:45;;;;;;;9.70;2.20;;;;;;;-128.00;-1.00;-1.00;18468;337;7504311;-31
2023/03/31 00:03:12;;;;;;;3.40;1.70;;;;;;;-128.00;-1.00;-1.00;18485;288;7504291;-34
2023/03/31 00:05:38;;;;;;;4.20;1.80;;;;;;;-128.00;-1.00;-1.00;18476;284;7505933;-34
2023/03/31 00:08:04;;;;;;;1.00;0.70;;;;;;;-128.00;-1.00;-1.00;18461;284;7505261;-35
2023/03/31 00:10:32;;;;;;;3.10;1.40;;;;;;;-128.00;-1.00;-1.00;18470;296;7506489;-35
2023/03/31 00:12:59;;;;;;;2.10;1.40;;;;;;;-128.00;-1.00;-1.00;18493;296;7505267;-31
2023/03/31 00:15:25;;;;;;;2.20;1.40;;;;;;;-128.00;-1.00;-1.00;18465;296;7504236;-34
2023/03/31 00:17:50;;;;;;;6.80;1.50;;;;;;;-128.00;-1.00;-1.00;18453;349;7504507;-35
2023/03/31 00:20:16;;;;;;;1.50;0.80;;;;;;;-128.00;-1.00;-1.00;18463;296;7506052;-35
2023/03/31 00:22:45;;;;;;;3.20;1.50;;;;;;;-128.00;-1.00;-1.00;18863;296;7504468;-35
2023/03/31 00:25:12;;;;;;;1.30;0.70;;;;;;;-128.00;-1.00;-1.00;18510;296;7505327;-35
2023/03/31 00:27:42;;;;;;;2.50;1.20;;;;;;;-128.00;-1.00;-1.00;18460;288;7505870;-31
2023/03/31 00:30:09;;;;;;;1.80;0.90;;;;;;;-128.00;-1.00;-1.00;18445;288;7504725;-34
2023/03/31 00:32:34;;;;;;;2.00;1.30;;;;;;;-128.00;-1.00;-1.00;18476;288;7505119;-30
2023/03/31 00:35:01;;;;;;;5.30;2.00;;;;;;;-128.00;-1.00;-1.00;18463;332;7505439;-34
2023/03/31 00:37:28;;;;;;;3.70;2.00;;;;;;;-128.00;-1.00;-1.00;18460;288;7505785;-34
2023/03/31 00:39:54;;;;;;;4.20;2.30;;;;;;;-128.00;-1.00;-1.00;18459;284;7505156;-34
2023/03/31 00:42:20;;;;;;;5.40;1.60;;;;;;;-128.00;-1.00;-1.00;18479;288;7507176;-31
2023/03/31 00:45:09;;;;;;;1.70;1.20;;;;;;;-128.00;-1.00;-1.00;18478;284;7504397;-30
2023/03/31 00:47:35;;;;;;;6.70;1.80;;;;;;;-128.00;-1.00;-1.00;18508;347;7505217;-34
2023/03/31 00:50:01;;;;;;;10.90;2.10;;;;;;;-128.00;-1.00;-1.00;18859;296;7504967;-34
2023/03/31 00:52:36;;;;;;;3.30;1.50;;;;;;;-128.00;-1.00;-1.00;18476;296;7504473;-34
2023/03/31 00:55:08;;;;;;;4.40;1.80;;;;;;;-128.00;-1.00;-1.00;18482;296;7504530;-31
2023/03/31 00:57:35;;;;;;;4.00;1.70;;;;;;;-128.00;-1.00;-1.00;18484;297;7504580;-34
2023/03/31 01:00:13;;;;;;;3.20;2.10;;;;;;;-128.00;-1.00;-1.00;18491;288;7506268;-31
2023/03/31 01:02:40;;;;;;;3.40;2.00;;;;;;;-128.00;-1.00;-1.00;18486;295;7505853;-34
2023/03/31 01:05:07;;;;;;;5.80;3.30;;;;;;;-128.00;-1.00;-1.00;18488;305;7504865;-34
2023/03/31 01:07:36;;;;;;;4.80;2.00;;;;;;;-128.00;-1.00;-1.00;18449;288;7504904;-34
2023/03/31 01:10:03;;;;;;;6.00;2.60;;;;;;;-128.00;-1.00;-1.00;18468;307;7506243;-31
2023/03/31 01:12:30;;;;;;;5.00;2.10;;;;;;;-128.00;-1.00;-1.00;18486;298;7504342;-31
2023/03/31 01:14:56;;;;;;;2.60;1.70;;;;;;;-128.00;-1.00;-1.00;18498;288;7504402;-34
2023/03/31 01:17:22;;;;;;;3.10;2.10;;;;;;;-128.00;-1.00;-1.00;18482;295;7504916;-34
2023/03/31 01:20:10;;;;;;;5.00;3.00;;;;;;;-128.00;-1.00;-1.00;18493;288;7504807;-34
2023/03/31 01:22:53;;;;;;;3.20;2.20;;;;;;;-128.00;-1.00;-1.00;18472;288;7504053;-31
2023/03/31 01:25:37;;;;;;;6.50;2.70;;;;;;;-128.00;-1.00;-1.00;18478;296;7504958;-34
2023/03/31 01:28:30;;;;;;;4.30;2.50;;;;;;;-128.00;-1.00;-1.00;18484;296;7505130;-31
2023/03/31 01:31:12;;;;;;;4.00;2.80;;;;;;;-128.00;-1.00;-1.00;18487;309;7506240;-34
2023/03/31 01:34:02;;;;;;;4.50;2.70;;;;;;;-128.00;-1.00;-1.00;18455;295;7505207;-34
2023/03/31 01:37:00;;;;;;;10.00;2.00;;;;;;;-128.00;-1.00;-1.00;18483;296;7505152;-31
2023/03/31 01:39:49;;;;;;;8.30;1.50;;;;;;;-128.00;-1.00;-1.00;18484;336;7504377;-30
2023/03/31 01:42:19;;;;;;;3.90;2.30;;;;;;;-128.00;-1.00;-1.00;18454;347;7506245;-33
2023/03/31 01:44:58;;;;;;;3.20;2.30;;;;;;;-128.00;-1.00;-1.00;18527;295;7505197;-32
2023/03/31 01:47:31;;;;;;;2.10;0.90;;;;;;;-128.00;-1.00;-1.00;18473;288;7504434;-29
2023/03/31 01:50:02;;;;;;;3.60;2.00;;;;;;;-128.00;-1.00;-1.00;18474;296;7505691;-29
2023/03/31 01:52:36;;;;;;;2.50;1.60;;;;;;;-128.00;-1.00;-1.00;18486;296;7504602;-32
2023/03/31 01:55:07;;;;;;;2.10;1.60;;;;;;;-128.00;-1.00;-1.00;18502;296;7504502;-33
2023/03/31 01:57:36;;;;;;;1.70;1.00;;;;;;;-128.00;-1.00;-1.00;18509;296;7505130;-35
2023/03/31 02:00:10;;;;;;;3.10;1.70;;;;;;;-128.00;-1.00;-1.00;18493;288;7504741;-32
2023/03/31 02:02:45;;;;;;;3.70;2.10;;;;;;;-128.00;-1.00;-1.00;18485;296;7504275;-35
2023/03/31 02:05:14;;;;;;;6.50;2.80;;;;;;;-128.00;-1.00;-1.00;18479;295;7504580;-32
2023/03/31 02:07:46;;;;;;;6.30;2.50;;;;;;;-128.00;-1.00;-1.00;18477;288;7506064;-32
2023/03/31 02:10:12;;;;;;;4.20;2.70;;;;;;;-128.00;-1.00;-1.00;18483;288;7504693;-35
2023/03/31 02:12:39;;;;;;;6.00;3.10;;;;;;;-128.00;-1.00;-1.00;18877;296;7505152;-31
2023/03/31 02:15:08;;;;;;;17.20;3.60;;;;;;;-128.00;-1.00;-1.00;18473;296;7505436;-35
2023/03/31 02:17:34;;;;;;;6.00;4.40;;;;;;;-128.00;-1.00;-1.00;18487;295;7504915;-35
2023/03/31 02:20:05;;;;;;;5.80;4.70;;;;;;;-128.00;-1.00;-1.00;18458;297;7504487;-31
2023/03/31 02:22:33;;;;;;;10.70;4.30;;;;;;;-128.00;-1.00;-1.00;18477;296;7504933;-31
2023/03/31 02:24:59;;;;;;;6.40;4.80;;;;;;;-128.00;-1.00;-1.00;18472;288;7505058;-35
2023/03/31 02:27:27;;;;;;;7.70;5.50;;;;;;;-128.00;-1.00;-1.00;18497;296;7504565;-35
2023/03/31 02:29:53;;;;;;;4.60;3.90;;;;;;;-128.00;-1.00;-1.00;18480;288;7504610;-31
2023/03/31 02:32:27;;;;;;;13.60;4.50;;;;;;;-128.00;-1.00;-1.00;18488;288;7504665;-30
2023/03/31 02:34:53;;;;;;;5.20;4.60;;;;;;;-128.00;-1.00;-1.00;18469;288;7504824;-34
2023/03/31 02:37:19;;;;;;;7.50;4.30;;;;;;;-128.00;-1.00;-1.00;18458;288;7504513;-34
2023/03/31 02:39:46;;;;;;;6.40;4.80;;;;;;;-128.00;-1.00;-1.00;18452;337;7504319;-34
2023/03/31 02:42:12;;;;;;;4.60;4.00;;;;;;;-128.00;-1.00;-1.00;18474;296;7504839;-32
2023/03/31 02:44:39;;;;;;;5.40;3.90;;;;;;;-128.00;-1.00;-1.00;18880;288;7504179;-34
2023/03/31 02:47:10;;;;;;;5.70;4.50;;;;;;;-128.00;-1.00;-1.00;18858;288;7504405;-35
2023/03/31 02:49:38;;;;;;;6.40;5.00;;;;;;;-128.00;-1.00;-1.00;18456;288;7506054;-31
2023/03/31 02:52:22;;;;;;;9.30;5.30;;;;;;;-128.00;-1.00;-1.00;18467;347;7505751;-30
2023/03/31 02:55:05;;;;;;;11.30;5.60;;;;;;;-128.00;-1.00;-1.00;18488;296;7504349;-35
2023/03/31 02:57:51;;;;;;;4.90;4.40;;;;;;;-128.00;-1.00;-1.00;18491;288;7506291;-31
2023/03/31 03:00:37;;;;;;;4.90;4.40;;;;;;;-128.00;-1.00;-1.00;18454;298;7505970;-33
2023/03/31 03:03:34;;;;;;;11.90;4.80;;;;;;;-128.00;-1.00;-1.00;18467;296;7505078;-30
2023/03/31 03:06:32;;;;;;;5.60;4.50;;;;;;;-128.00;-1.00;-1.00;18494;296;7505233;-34
2023/03/31 03:09:11;;;;;;;10.30;5.20;;;;;;;-128.00;-1.00;-1.00;18458;296;7505512;-30
2023/03/31 03:11:51;;;;;;;13.70;5.30;;;;;;;-128.00;-1.00;-1.00;18481;288;7504651;-30
2023/03/31 03:14:41;;;;;;;6.30;4.60;;;;;;;-128.00;-1.00;-1.00;18473;296;7506369;-31
2023/03/31 03:17:31;;;;;;;5.50;4.90;;;;;;;-128.00;-1.00;-1.00;18523;295;7504979;-31
2023/03/31 03:19:59;;;;;;;6.00;4.30;;;;;;;-128.00;-1.00;-1.00;18472;288;7506565;-30
2023/03/31 03:22:25;;;;;;;8.80;5.90;;;;;;;-128.00;-1.00;-1.00;18527;288;7506020;-34
2023/03/31 03:24:52;;;;;;;5.40;4.50;;;;;;;-128.00;-1.00;-1.00;18509;287;7504602;-30
2023/03/31 03:27:21;;;;;;;8.00;5.20;;;;;;;-128.00;-1.00;-1.00;18488;347;7504731;-35
2023/03/31 03:29:46;;;;;;;5.80;5.10;;;;;;;-128.00;-1.00;-1.00;18494;296;7504448;-33
2023/03/31 03:32:12;;;;;;;4.30;3.90;;;;;;;-128.00;-1.00;-1.00;18503;319;7504882;-32
2023/03/31 03:34:38;;;;;;;7.20;4.10;;;;;;;-128.00;-1.00;-1.00;18486;296;7505757;-33
2023/03/31 03:37:04;;;;;;;8.40;4.30;;;;;;;-128.00;-1.00;-1.00;18442;298;7505252;-30
2023/03/31 03:39:30;;;;;;;9.90;7.20;;;;;;;-128.00;-1.00;-1.00;18479;295;7506029;-34
2023/03/31 03:41:56;;;;;;;8.00;5.30;;;;;;;-128.00;-1.00;-1.00;18516;296;7504790;-30
2023/03/31 03:44:22;;;;;;;9.00;5.70;;;;;;;-128.00;-1.00;-1.00;18476;296;7504233;-33
2023/03/31 03:46:48;;;;;;;7.40;5.30;;;;;;;-128.00;-1.00;-1.00;18909;288;7504738;-32
2023/03/31 03:49:14;;;;;;;7.50;6.20;;;;;;;-128.00;-1.00;-1.00;18927;295;7504882;-31
2023/03/31 03:51:41;;;;;;;6.60;5.60;;;;;;;-128.00;-1.00;-1.00;18858;298;7505171;-35
2023/03/31 03:54:07;;;;;;;6.00;4.50;;;;;;;-128.00;-1.00;-1.00;18876;298;7504574;-32
2023/03/31 03:56:33;;;;;;;4.50;4.00;;;;;;;-128.00;-1.00;-1.00;18448;341;7506385;-30
2023/03/31 03:59:00;;;;;;;6.60;4.60;;;;;;;-128.00;-1.00;-1.00;18505;296;7504298;-31
2023/03/31 04:01:25;;;;;;;10.80;6.50;;;;;;;-128.00;-1.00;-1.00;18497;296;7505862;-31
2023/03/31 04:03:51;;;;;;;4.20;3.80;;;;;;;-128.00;-1.00;-1.00;18491;295;7505040;-34
2023/03/31 04:06:16;;;;;;;7.50;5.50;;;;;;;-128.00;-1.00;-1.00;18463;340;7504357;-34
2023/03/31 04:08:42;;;;;;;5.70;4.20;;;;;;;-128.00;-1.00;-1.00;18503;295;7505191;-30
2023/03/31 04:11:12;;;;;;;7.80;5.30;;;;;;;-128.00;-1.00;-1.00;18899;296;7504770;-30
2023/03/31 04:13:38;;;;;;;6.30;4.60;;;;;;;-128.00;-1.00;-1.00;18480;298;7504508;-30
2023/03/31 04:16:04;;;;;;;8.20;5.40;;;;;;;-128.00;-1.00;-1.00;18513;311;7504768;-37
2023/03/31 04:18:30;;;;;;;6.40;5.30;;;;;;;-128.00;-1.00;-1.00;18491;295;7507113;-32
2023/03/31 04:23:37;;;;;;;8.20;6.80;;;;;;;-128.00;-1.00;-1.00;18493;296;7506559;-35
2023/03/31 04:26:07;;;;;;;25.10;5.50;;;;;;;-128.00;-1.00;-1.00;18500;297;7504888;-35
2023/03/31 04:28:34;;;;;;;9.20;5.50;;;;;;;-128.00;-1.00;-1.00;18498;347;7506073;-35
2023/03/31 04:31:01;;;;;;;8.70;6.00;;;;;;;-128.00;-1.00;-1.00;18463;296;7504576;-34
2023/03/31 04:33:27;;;;;;;13.10;6.80;;;;;;;-128.00;-1.00;-1.00;18457;296;7504680;-31
2023/03/31 04:35:52;;;;;;;9.40;6.70;;;;;;;-128.00;-1.00;-1.00;18477;295;7504396;-31
2023/03/31 05:16:33;;;;;;;11.70;8.70;;;;;;;-101.50;19.20;19676.80;19563;295;8045348;-30
2023/03/31 05:18:59;;;;;;;12.40;9.00;;;;;;;-128.00;-1.00;-1.00;18539;320;7504177;-34
2023/03/31 05:21:26;;;;;;;17.80;9.10;;;;;;;-128.00;-1.00;-1.00;18909;295;7505140;-34
2023/03/31 05:23:52;;;;;;;9.10;6.90;;;;;;;-128.00;-1.00;-1.00;18460;297;7505178;-31
2023/03/31 05:26:18;;;;;;;14.10;6.50;;;;;;;-128.00;-1.00;-1.00;18481;311;7504940;-34
2023/03/31 05:28:43;;;;;;;5.20;4.20;;;;;;;-128.00;-1.00;-1.00;18474;295;7504571;-30
2023/03/31 05:31:11;;;;;;;10.00;6.70;;;;;;;-128.00;-1.00;-1.00;18889;295;7504197;-34
2023/03/31 05:33:40;;;;;;;8.60;6.60;;;;;;;-128.00;-1.00;-1.00;18499;346;7505054;-30
2023/03/31 05:36:11;;;;;;;10.70;6.60;;;;;;;-128.00;-1.00;-1.00;18478;295;7504419;-31
2023/03/31 05:38:37;;;;;;;8.70;7.30;;;;;;;-128.00;-1.00;-1.00;18457;294;7504728;-31
2023/03/31 05:41:02;;;;;;;15.40;8.20;;;;;;;-128.00;-1.00;-1.00;18498;306;7504641;-34
2023/03/31 05:43:28;;;;;;;10.50;6.10;;;;;;;-128.00;-1.00;-1.00;18460;346;7504532;-30
2023/03/31 05:45:54;;;;;;;10.50;5.80;;;;;;;-128.00;-1.00;-1.00;18492;295;7506158;-31
2023/03/31 05:48:20;;;;;;;10.30;7.00;;;;;;;-128.00;-1.00;-1.00;18473;303;7506320;-31
2023/03/31 05:50:46;;;;;;;9.10;7.20;;;;;;;-128.00;-1.00;-1.00;18476;295;7504481;-35
2023/03/31 05:53:12;;;;;;;11.20;6.70;;;;;;;-128.00;-1.00;-1.00;18472;295;7504619;-34
2023/03/31 05:55:38;;;;;;;8.00;5.50;;;;;;;-128.00;-1.00;-1.00;18458;335;7505304;-35
2023/03/31 05:58:04;;;;;;;8.20;6.60;;;;;;;-128.00;-1.00;-1.00;18493;303;7504834;-30
2023/03/31 06:00:30;;;;;;;6.40;5.40;;;;;;;-128.00;-1.00;-1.00;18486;295;7505671;-35
2023/03/31 06:02:56;;;;;;;7.40;5.30;;;;;;;-128.00;-1.00;-1.00;18462;288;7506211;-35
2023/03/31 06:05:25;;;;;;;11.00;6.50;;;;;;;-128.00;-1.00;-1.00;18913;310;7504110;-31
2023/03/31 06:07:52;;;;;;;8.80;5.30;;;;;;;-128.00;-1.00;-1.00;18495;294;7505995;-35
2023/03/31 06:10:18;;;;;;;7.70;6.10;;;;;;;-128.00;-1.00;-1.00;18491;295;7505422;-30
2023/03/31 06:12:44;;;;;;;11.10;5.80;;;;;;;-128.00;-1.00;-1.00;18469;320;7504974;-33
2023/03/31 06:15:10;;;;;;;14.10;5.60;;;;;;;-128.00;-1.00;-1.00;18483;295;7504505;-34
2023/03/31 06:17:36;;;;;;;6.10;4.70;;;;;;;-128.00;-1.00;-1.00;18488;295;7504780;-33
2023/03/31 06:20:03;;;;;;;11.50;6.10;;;;;;;-128.00;-1.00;-1.00;18489;295;7504447;-30
2023/03/31 06:22:28;;;;;;;8.10;5.20;;;;;;;-128.00;-1.00;-1.00;18454;335;7505273;-30
2023/03/31 06:24:54;;;;;;;4.90;4.10;;;;;;;-128.00;-1.00;-1.00;18458;284;7506224;-34
2023/03/31 06:27:20;;;;;;;6.10;4.90;;;;;;;-128.00;-1.00;-1.00;18479;295;7504616;-34
2023/03/31 06:29:46;;;;;;;10.40;6.20;;;;;;;-128.00;-1.00;-1.00;18871;294;7504615;-34
2023/03/31 06:32:12;;;;;;;7.90;5.40;;;;;;;-128.00;-1.00;-1.00;18895;295;7504959;-34
2023/03/31 06:34:38;;;;;;;8.10;5.00;;;;;;;-128.00;-1.00;-1.00;18887;294;7505267;-32
2023/03/31 06:37:04;;;;;;;9.20;6.20;;;;;;;-128.00;-1.00;-1.00;18853;295;7505317;-32
2023/03/31 06:39:30;;;;;;;8.60;6.10;;;;;;;-128.00;-1.00;-1.00;18881;295;7505109;-32
2023/03/31 06:41:57;;;;;;;7.30;5.40;;;;;;;-128.00;-1.00;-1.00;18909;296;7505796;-35
2023/03/31 06:44:23;;;;;;;5.50;4.20;;;;;;;-128.00;-1.00;-1.00;18887;323;7504994;-31
2023/03/31 06:46:49;;;;;;;5.50;4.10;;;;;;;-128.00;-1.00;-1.00;18870;347;7504440;-35
2023/03/31 06:49:16;;;;;;;13.60;4.80;;;;;;;-128.00;-1.00;-1.00;18881;297;7505107;-31
2023/03/31 06:51:42;;;;;;;6.40;4.10;;;;;;;-128.00;-1.00;-1.00;18863;341;7504647;-34
2023/03/31 06:54:08;;;;;;;12.00;3.60;;;;;;;-128.00;-1.00;-1.00;18877;295;7504348;-32
2023/03/31 06:56:34;;;;;;;5.80;5.10;;;;;;;-128.00;-1.00;-1.00;18901;295;7505718;-34
2023/03/31 06:59:00;;;;;;;10.80;6.40;;;;;;;-128.00;-1.00;-1.00;18866;319;7505168;-35
2023/03/31 07:01:26;;;;;;;6.20;3.70;;;;;;;-128.00;-1.00;-1.00;18873;297;7504363;-36
2023/03/31 07:03:53;;;;;;;6.10;3.90;;;;;;;-128.00;-1.00;-1.00;18910;294;7506386;-31
2023/03/31 07:06:19;;;;;;;5.10;3.50;;;;;;;-128.00;-1.00;-1.00;18856;295;7504584;-35
2023/03/31 07:08:45;;;;;;;8.00;4.00;;;;;;;-128.00;-1.00;-1.00;18873;295;7505013;-31
2023/03/31 07:11:11;;;;;;;8.40;4.20;;;;;;;-128.00;-1.00;-1.00;18882;307;7504297;-32
2023/03/31 07:13:37;;;;;;;4.20;3.40;;;;;;;-128.00;-1.00;-1.00;18859;296;7504513;-30
2023/03/31 07:16:05;;;;;;;8.20;4.00;;;;;;;-128.00;-1.00;-1.00;18877;330;7506586;-30
2023/03/31 07:18:31;;;;;;;2.20;1.60;;;;;;;-128.00;-1.00;-1.00;18484;295;7505685;-34
2023/03/31 07:20:58;;;;;;;5.10;3.10;;;;;;;-128.00;-1.00;-1.00;18467;295;7504845;-31
2023/03/31 07:23:24;;;;;;;5.60;2.40;;;;;;;-128.00;-1.00;-1.00;18472;294;7505728;-30
2023/03/31 07:25:50;;;;;;;4.20;3.50;;;;;;;-128.00;-1.00;-1.00;18504;294;7506499;-31
2023/03/31 07:28:16;;;;;;;10.00;2.60;;;;;;;-128.00;-1.00;-1.00;18474;295;7504850;-33
2023/03/31 07:30:42;;;;;;;9.00;3.90;;;;;;;-128.00;-1.00;-1.00;18871;295;7504494;-34
2023/03/31 07:33:08;;;;;;;2.70;2.30;;;;;;;-128.00;-1.00;-1.00;18865;294;7504442;-35
2023/03/31 07:35:39;;;;;;;3.00;2.70;;;;;;;-128.00;-1.00;-1.00;18503;341;7504466;-35
2023/03/31 07:38:05;;;;;;;4.10;2.60;;;;;;;-128.00;-1.00;-1.00;18476;295;7505299;-32
2023/03/31 07:40:30;;;;;;;3.40;1.90;;;;;;;-128.00;-1.00;-1.00;18463;347;7504858;-35
2023/03/31 07:42:56;;;;;;;2.30;1.50;;;;;;;-128.00;-1.00;-1.00;18506;343;7504438;-32
2023/03/31 07:45:23;;;;;;;2.60;1.90;;;;;;;-128.00;-1.00;-1.00;18475;295;7505049;-32
2023/03/31 07:47:49;;;;;;;2.00;1.70;;;;;;;-128.00;-1.00;-1.00;18467;295;7504570;-32
2023/03/31 07:50:15;;;;;;;6.90;3.00;;;;;;;-128.00;-1.00;-1.00;18492;295;7506138;-32
2023/03/31 07:52:41;;;;;;;2.30;1.70;;;;;;;-128.00;-1.00;-1.00;18478;335;7504266;-36
2023/03/31 07:55:07;;;;;;;4.30;1.40;;;;;;;-128.00;-1.00;-1.00;18504;288;7506081;-36
2023/03/31 07:57:34;;;;;;;2.20;1.20;;;;;;;-128.00;-1.00;-1.00;18460;335;7505063;-31
2023/03/31 08:00:00;;;;;;;5.20;3.20;;;;;;;-128.00;-1.00;-1.00;18482;294;7506105;-32
2023/03/31 08:02:26;;;;;;;5.90;2.20;;;;;;;-128.00;-1.00;-1.00;18443;296;7505027;-35
2023/03/31 08:04:52;;;;;;;5.50;2.80;;;;;;;-128.00;-1.00;-1.00;18483;294;7504722;-33
2023/03/31 08:07:18;;;;;;;8.40;5.60;;;;;;;-128.00;-1.00;-1.00;18483;307;7504569;-35
2023/03/31 08:09:44;;;;;;;8.00;6.20;;;;;;;-128.00;-1.00;-1.00;18892;347;7506071;-32
2023/03/31 08:12:10;;;;;;;4.50;1.30;;;;;;;-128.00;-1.00;-1.00;18473;295;7504598;-31
2023/03/31 08:14:36;;;;;;;4.60;3.50;;;;;;;-128.00;-1.00;-1.00;18471;297;7504843;-34
2023/03/31 08:17:02;;;;;;;3.90;1.90;;;;;;;-128.00;-1.00;-1.00;18477;318;7504387;-30
2023/03/31 08:19:28;;;;;;;2.00;1.70;;;;;;;-128.00;-1.00;-1.00;18465;295;7506992;-31
2023/03/31 08:21:55;;;;;;;4.80;2.10;;;;;;;-128.00;-1.00;-1.00;18469;295;7505017;-35
2023/03/31 08:24:20;;;;;;;6.40;2.70;;;;;;;-128.00;-1.00;-1.00;18503;288;7505108;-31
2023/03/31 08:26:46;;;;;;;6.90;2.50;;;;;;;-128.00;-1.00;-1.00;18471;347;7505101;-32
2023/03/31 08:29:12;;;;;;;7.30;2.80;;;;;;;-128.00;-1.00;-1.00;18480;296;7504857;-34
2023/03/31 08:31:38;;;;;;;2.30;1.20;;;;;;;-128.00;-1.00;-1.00;18476;318;7504959;-34
2023/03/31 08:34:04;;;;;;;2.60;1.40;;;;;;;-128.00;-1.00;-1.00;18465;295;7506160;-31
2023/03/31 08:36:30;;;;;;;3.90;1.80;;;;;;;-128.00;-1.00;-1.00;18480;296;7504890;-31
2023/03/31 08:38:55;;;;;;;8.00;1.50;;;;;;;-128.00;-1.00;-1.00;18494;303;7505824;-32
2023/03/31 08:41:40;;;;;;;3.00;1.90;;;;;;;-128.00;-1.00;-1.00;18918;296;7504180;-32
2023/03/31 08:44:10;;;;;;;3.70;1.70;;;;;;;-128.00;-1.00;-1.00;18477;347;7506458;-32
2023/03/31 08:46:37;;;;;;;0.90;0.70;;;;;;;-128.00;-1.00;-1.00;18510;295;7504357;-32
2023/03/31 08:49:02;;;;;;;3.50;2.60;;;;;;;-128.00;-1.00;-1.00;18489;307;7504893;-36
2023/03/31 08:51:33;;;;;;;2.80;1.40;;;;;;;-128.00;-1.00;-1.00;18498;343;7506467;-35
2023/03/31 08:54:11;;;;;;;4.00;1.00;;;;;;;-128.00;-1.00;-1.00;18465;295;7505056;-32
2023/03/31 08:56:42;;;;;;;3.70;1.20;;;;;;;-128.00;-1.00;-1.00;18464;295;7506472;-32
2023/03/31 08:59:28;;;;;;;4.00;1.70;;;;;;;-128.00;-1.00;-1.00;18491;295;7505644;-32
2023/03/31 09:02:23;;;;;;;6.00;0.70;;;;;;;-128.00;-1.00;-1.00;18499;295;7504488;-32
2023/03/31 09:04:56;;;;;;;2.80;0.90;;;;;;;-128.00;-1.00;-1.00;18464;296;7506331;-35
2023/03/31 09:07:31;;;;;;;3.80;1.30;;;;;;;-128.00;-1.00;-1.00;18498;295;7504988;-36
2023/03/31 09:10:21;;;;;;;2.60;1.70;;;;;;;-128.00;-1.00;-1.00;18454;298;7505349;-34
2023/03/31 09:13:06;;;;;;;3.90;0.70;;;;;;;-128.00;-1.00;-1.00;18467;295;7504777;-31
2023/03/31 09:15:43;;;;;;;2.60;0.90;;;;;;;-128.00;-1.00;-1.00;18465;306;7504490;-34
2023/03/31 09:18:26;;;;;;;6.40;0.70;;;;;;;-128.00;-1.00;-1.00;18461;295;7504804;-35
2023/03/31 09:20:52;;;;;;;1.80;1.10;;;;;;;-128.00;-1.00;-1.00;18455;307;7506389;-35
2023/03/31 09:23:28;;;;;;;1.60;0.80;;;;;;;-128.00;-1.00;-1.00;18472;295;7505260;-31
2023/03/31 09:25:54;;;;;;;2.30;1.10;;;;;;;-128.00;-1.00;-1.00;18485;295;7505052;-32
2023/03/31 09:28:22;;;;;;;2.10;1.10;;;;;;;-128.00;-1.00;-1.00;18480;303;7504642;-31
2023/03/31 09:30:48;;;;;;;2.10;0.80;;;;;;;-128.00;-1.00;-1.00;18481;288;7505967;-35
2023/03/31 09:33:33;;;;;;;2.20;1.40;;;;;;;-128.00;-1.00;-1.00;18496;295;7505885;-32
2023/03/31 09:35:59;;;;;;;4.00;1.20;;;;;;;-128.00;-1.00;-1.00;18470;295;7504359;-35
2023/03/31 09:38:28;;;;;;;2.30;1.40;;;;;;;-128.00;-1.00;-1.00;18473;295;7504764;-35
2023/03/31 09:40:58;;;;;;;5.00;2.00;;;;;;;-128.00;-1.00;-1.00;18461;295;7504851;-32
2023/03/31 09:43:28;;;;;;;3.30;1.30;;;;;;;-128.00;-1.00;-1.00;18489;339;7504706;-35
2023/03/31 09:45:54;;;;;;;2.40;0.90;;;;;;;-128.00;-1.00;-1.00;18456;299;7504978;-35
2023/03/31 09:48:22;;;;;;;10.10;1.10;;;;;;;-128.00;-1.00;-1.00;18475;295;7506396;-32
2023/03/31 09:50:50;;;;;;;4.10;1.30;;;;;;;-128.00;-1.00;-1.00;18466;347;7506048;-36
2023/03/31 09:53:48;;;;;;;2.50;1.60;;;;;;;-128.00;-1.00;-1.00;18469;295;7504393;-36
2023/03/31 09:56:30;;;;;;;4.50;1.50;;;;;;;-128.00;-1.00;-1.00;18492;283;7504997;-35
2023/03/31 09:58:57;;;;;;;3.60;1.20;;;;;;;-128.00;-1.00;-1.00;18481;295;7505113;-31
2023/03/31 10:01:22;;;;;;;2.20;0.90;;;;;;;-128.00;-1.00;-1.00;18477;288;7504833;-35
2023/03/31 10:03:51;;;;;;;0.80;0.50;;;;;;;-128.00;-1.00;-1.00;18856;295;7504519;-35
2023/03/31 10:06:17;;;;;;;3.20;0.60;;;;;;;-128.00;-1.00;-1.00;18509;295;7505861;-35
2023/03/31 10:08:48;;;;;;;0.70;0.50;;;;;;;-128.00;-1.00;-1.00;18486;307;7504712;-35
2023/03/31 10:11:14;;;;;;;2.60;0.60;;;;;;;-128.00;-1.00;-1.00;18506;295;7504297;-36
2023/03/31 10:13:57;;;;;;;4.90;1.70;;;;;;;-128.00;-1.00;-1.00;18488;299;7506280;-33
2023/03/31 10:16:31;;;;;;;2.30;1.10;;;;;;;-128.00;-1.00;-1.00;18461;295;7506946;-36
2023/03/31 10:19:13;;;;;;;3.00;0.80;;;;;;;-128.00;-1.00;-1.00;18464;295;7504866;-36
2023/03/31 10:21:39;;;;;;;6.50;1.20;;;;;;;-128.00;-1.00;-1.00;18471;296;7505785;-35
2023/03/31 10:24:09;;;;;;;4.30;1.20;;;;;;;-128.00;-1.00;-1.00;18476;296;7506874;-36
2023/03/31 10:26:35;;;;;;;4.50;1.20;;;;;;;-128.00;-1.00;-1.00;18480;339;7505042;-32
2023/03/31 10:29:00;;;;;;;3.40;1.00;;;;;;;-128.00;-1.00;-1.00;18473;318;7505097;-32
2023/03/31 10:31:33;;;;;;;3.40;1.30;;;;;;;-128.00;-1.00;-1.00;18467;295;7504255;-32
2023/03/31 10:33:58;;;;;;;3.80;0.90;;;;;;;-128.00;-1.00;-1.00;18480;295;7505999;-35
2023/03/31 10:36:26;;;;;;;8.80;1.40;;;;;;;-128.00;-1.00;-1.00;18457;335;7505849;-31
2023/03/31 10:38:51;;;;;;;5.70;1.40;;;;;;;-128.00;-1.00;-1.00;18452;296;7504891;-35
2023/03/31 10:41:20;;;;;;;5.20;1.50;;;;;;;-128.00;-1.00;-1.00;18468;296;7506047;-35
2023/03/31 10:43:49;;;;;;;5.10;0.70;;;;;;;-128.00;-1.00;-1.00;18468;296;7504652;-35
2023/03/31 10:46:14;;;;;;;1.60;1.00;;;;;;;-128.00;-1.00;-1.00;18489;295;7504856;-32
2023/03/31 10:48:41;;;;;;;5.60;1.30;;;;;;;-128.00;-1.00;-1.00;18897;295;7504531;-34
2023/03/31 10:51:15;;;;;;;2.30;0.90;;;;;;;-128.00;-1.00;-1.00;18869;288;7504898;-31
2023/03/31 10:53:45;;;;;;;3.80;1.50;;;;;;;-128.00;-1.00;-1.00;18450;347;7506596;-32
2023/03/31 10:56:18;;;;;;;2.20;0.90;;;;;;;-128.00;-1.00;-1.00;18476;296;7505613;-32
2023/03/31 10:59:09;;;;;;;7.80;1.70;;;;;;;-128.00;-1.00;-1.00;18467;315;7507093;-35
2023/03/31 11:01:51;;;;;;;13.40;1.20;;;;;;;-128.00;-1.00;-1.00;18472;295;7504652;-35
2023/03/31 11:04:26;;;;;;;;;;;;;;;-128.00;-1.00;-1.00;18476;335;7506128;-31
2023/03/31 11:46:00;;;;;;;2.10;0.70;;;;;;;-98.93;9.84;19593.11;74228;294;3005124;-36
2023/03/31 11:48:43;;;;;;;7.30;0.60;;;;;;;-128.00;-1.00;-1.00;18198;288;7504774;-36
2023/03/31 11:51:18;;;;;;;1.00;0.50;;;;;;;-128.00;-1.00;-1.00;18526;294;7504738;-36
2023/03/31 11:53:44;;;;;;;1.90;0.60;;;;;;;-128.00;-1.00;-1.00;18485;298;7504683;-35
2023/03/31 11:56:10;;;;;;;1.50;0.60;;;;;;;-128.00;-1.00;-1.00;18494;294;7504544;-31
2023/03/31 11:58:43;;;;;;;2.50;0.30;;;;;;;-128.00;-1.00;-1.00;18504;346;7504850;-31
2023/03/31 12:01:26;;;;;;;1.70;0.60;;;;;;;-128.00;-1.00;-1.00;18505;294;7504163;-35
2023/03/31 12:04:03;;;;;;;1.30;0.30;;;;;;;-128.00;-1.00;-1.00;18519;286;7504404;-35
2023/03/31 12:06:31;;;;;;;3.70;0.20;;;;;;;-128.00;-1.00;-1.00;18483;295;7505009;-35
2023/03/31 12:09:20;;;;;;;1.50;0.40;;;;;;;-128.00;-1.00;-1.00;18450;296;7507419;-31
2023/03/31 12:11:51;;;;;;;1.30;0.20;;;;;;;-128.00;-1.00;-1.00;18511;301;7504651;-35
2023/03/31 12:14:24;;;;;;;6.40;0.50;;;;;;;-128.00;-1.00;-1.00;18491;294;7504445;-35
2023/03/31 12:16:55;;;;;;;2.10;0.60;;;;;;;-128.00;-1.00;-1.00;18500;309;7504316;-35
2023/03/31 12:19:26;;;;;;;7.80;0.40;;;;;;;-128.00;-1.00;-1.00;18477;295;7504262;-31
2023/03/31 12:21:58;;;;;;;1.20;0.40;;;;;;;-128.00;-1.00;-1.00;18501;294;7505979;-35
2023/03/31 12:24:24;;;;;;;2.50;0.50;;;;;;;-128.00;-1.00;-1.00;18522;306;7504590;-35
2023/03/31 12:26:56;;;;;;;3.70;0.60;;;;;;;-128.00;-1.00;-1.00;18472;347;7504629;-35
2023/03/31 12:29:38;;;;;;;2.00;0.30;;;;;;;-128.00;-1.00;-1.00;18489;287;7504759;-34
2023/03/31 12:32:09;;;;;;;0.90;0.30;;;;;;;-128.00;-1.00;-1.00;18483;294;7506242;-30
2023/03/31 12:34:37;;;;;;;4.90;0.90;;;;;;;-128.00;-1.00;-1.00;18468;295;7505169;-36
2023/03/31 12:37:13;;;;;;;1.80;1.00;;;;;;;-128.00;-1.00;-1.00;18490;294;7505491;-33
2023/03/31 12:39:48;;;;;;;2.60;0.60;;;;;;;-128.00;-1.00;-1.00;18472;295;7506198;-32
2023/03/31 12:42:34;;;;;;;0.50;0.30;;;;;;;-128.00;-1.00;-1.00;18501;335;7505231;-32
2023/03/31 12:45:13;;;;;;;1.90;0.50;;;;;;;-128.00;-1.00;-1.00;18477;294;7504971;-32
2023/03/31 12:48:03;;;;;;;3.40;0.90;;;;;;;-128.00;-1.00;-1.00;18488;294;7504577;-36
2023/03/31 12:50:47;;;;;;;3.20;0.60;;;;;;;-128.00;-1.00;-1.00;18511;294;7504619;-36
2023/03/31 12:53:25;;;;;;;3.30;0.60;;;;;;;-128.00;-1.00;-1.00;18476;295;7504943;-36
2023/03/31 12:55:56;;;;;;;3.30;0.70;;;;;;;-128.00;-1.00;-1.00;18487;346;7505376;-32
2023/03/31 12:58:42;;;;;;;4.80;0.70;;;;;;;-128.00;-1.00;-1.00;18476;295;7504357;-31
2023/03/31 13:01:18;;;;;;;2.20;0.70;;;;;;;-128.00;-1.00;-1.00;18459;294;7505745;-35
2023/03/31 13:04:11;;;;;;;8.60;0.90;;;;;;;-128.00;-1.00;-1.00;18481;294;7504406;-35
2023/03/31 13:06:49;;;;;;;3.90;0.50;;;;;;;-128.00;-1.00;-1.00;18493;335;7504978;-31